sensor_id;sensor_type;location;lat;lon;timestamp;temperature;humidity
76936;DHT22;65881;52.438;16.744;2023-02-28T00:01:20;-3.10;86.10
76936;DHT22;65881;52.438;16.744;2023-02-28T00:03:46;-3.10;86.30
76936;DHT22;65881;52.438;16.744;2023-02-28T00:06:12;-3.10;86.20
76936;DHT22;65881;52.438;16.744;2023-02-28T00:08:38;-3.10;85.90
76936;DHT22;65881;52.438;16.744;2023-02-28T00:11:10;-3.10;86.40
76936;DHT22;65881;52.438;16.744;2023-02-28T00:13:39;-3.10;86.40
76936;DHT22;65881;52.438;16.744;2023-02-28T00:16:07;-3.20;86.30
76936;DHT22;65881;52.438;16.744;2023-02-28T00:18:34;-3.20;86.80
76936;DHT22;65881;52.438;16.744;2023-02-28T00:21:01;-3.20;87.30
76936;DHT22;65881;52.438;16.744;2023-02-28T00:23:27;-3.20;86.90
76936;DHT22;65881;52.438;16.744;2023-02-28T00:25:54;-3.20;86.70
76936;DHT22;65881;52.438;16.744;2023-02-28T00:28:20;-3.30;87.20
76936;DHT22;65881;52.438;16.744;2023-02-28T00:30:46;-3.30;87.30
76936;DHT22;65881;52.438;16.744;2023-02-28T00:33:12;-3.40;86.80
76936;DHT22;65881;52.438;16.744;2023-02-28T00:35:38;-3.40;87.20
76936;DHT22;65881;52.438;16.744;2023-02-28T00:38:04;-3.40;87.10
76936;DHT22;65881;52.438;16.744;2023-02-28T00:40:30;-3.50;87.50
76936;DHT22;65881;52.438;16.744;2023-02-28T00:42:55;-3.50;87.90
76936;DHT22;65881;52.438;16.744;2023-02-28T00:45:21;-3.50;88.40
76936;DHT22;65881;52.438;16.744;2023-02-28T00:47:47;-3.50;88.80
76936;DHT22;65881;52.438;16.744;2023-02-28T00:50:17;-3.50;88.90
76936;DHT22;65881;52.438;16.744;2023-02-28T00:52:43;-3.50;88.70
76936;DHT22;65881;52.438;16.744;2023-02-28T00:55:09;-3.50;88.40
76936;DHT22;65881;52.438;16.744;2023-02-28T00:57:35;-3.50;88.30
76936;DHT22;65881;52.438;16.744;2023-02-28T01:00:01;-3.60;88.20
76936;DHT22;65881;52.438;16.744;2023-02-28T01:02:27;-3.60;88.50
76936;DHT22;65881;52.438;16.744;2023-02-28T01:04:52;-3.60;89.00
76936;DHT22;65881;52.438;16.744;2023-02-28T01:07:19;-3.60;90.10
76936;DHT22;65881;52.438;16.744;2023-02-28T01:09:44;-3.60;90.20
76936;DHT22;65881;52.438;16.744;2023-02-28T01:12:10;-3.60;89.90
76936;DHT22;65881;52.438;16.744;2023-02-28T01:14:38;-3.60;89.50
76936;DHT22;65881;52.438;16.744;2023-02-28T01:17:04;-3.60;89.50
76936;DHT22;65881;52.438;16.744;2023-02-28T01:19:31;-3.70;89.80
76936;DHT22;65881;52.438;16.744;2023-02-28T01:21:56;-3.70;89.80
76936;DHT22;65881;52.438;16.744;2023-02-28T01:24:22;-3.70;90.00
76936;DHT22;65881;52.438;16.744;2023-02-28T01:26:48;-3.70;90.00
76936;DHT22;65881;52.438;16.744;2023-02-28T01:29:15;-3.70;90.40
76936;DHT22;65881;52.438;16.744;2023-02-28T01:31:40;-3.80;90.20
76936;DHT22;65881;52.438;16.744;2023-02-28T01:34:06;-3.80;89.90
76936;DHT22;65881;52.438;16.744;2023-02-28T01:36:32;-3.80;89.50
76936;DHT22;65881;52.438;16.744;2023-02-28T01:38:57;-3.80;89.30
76936;DHT22;65881;52.438;16.744;2023-02-28T01:41:26;-3.80;89.40
76936;DHT22;65881;52.438;16.744;2023-02-28T01:43:55;-3.80;90.00
76936;DHT22;65881;52.438;16.744;2023-02-28T01:46:21;-3.80;89.90
76936;DHT22;65881;52.438;16.744;2023-02-28T01:48:51;-3.80;90.50
76936;DHT22;65881;52.438;16.744;2023-02-28T01:51:22;-3.80;90.70
76936;DHT22;65881;52.438;16.744;2023-02-28T01:53:56;-3.90;91.00
76936;DHT22;65881;52.438;16.744;2023-02-28T01:56:27;-4.00;91.00
76936;DHT22;65881;52.438;16.744;2023-02-28T01:58:54;-4.00;91.40
76936;DHT22;65881;52.438;16.744;2023-02-28T02:01:21;-4.00;91.70
76936;DHT22;65881;52.438;16.744;2023-02-28T02:03:54;-4.00;91.40
76936;DHT22;65881;52.438;16.744;2023-02-28T02:06:43;-4.00;91.50
76936;DHT22;65881;52.438;16.744;2023-02-28T02:09:11;-4.00;91.20
76936;DHT22;65881;52.438;16.744;2023-02-28T02:11:39;-4.00;92.30
76936;DHT22;65881;52.438;16.744;2023-02-28T02:22:36;-4.10;93.00
76936;DHT22;65881;52.438;16.744;2023-02-28T02:25:20;-4.10;93.00
76936;DHT22;65881;52.438;16.744;2023-02-28T02:38:35;-4.20;93.90
76936;DHT22;65881;52.438;16.744;2023-02-28T02:41:23;-4.20;93.20
76936;DHT22;65881;52.438;16.744;2023-02-28T02:44:10;-4.20;93.30
76936;DHT22;65881;52.438;16.744;2023-02-28T02:46:43;-4.30;93.20
76936;DHT22;65881;52.438;16.744;2023-02-28T02:49:15;-4.30;93.60
76936;DHT22;65881;52.438;16.744;2023-02-28T02:51:42;-4.20;93.70
76936;DHT22;65881;52.438;16.744;2023-02-28T02:54:38;-4.30;93.00
76936;DHT22;65881;52.438;16.744;2023-02-28T02:57:17;-4.40;93.40
76936;DHT22;65881;52.438;16.744;2023-02-28T02:59:47;-4.40;93.80
76936;DHT22;65881;52.438;16.744;2023-02-28T03:02:16;-4.40;94.30
76936;DHT22;65881;52.438;16.744;2023-02-28T03:04:46;-4.40;93.80
76936;DHT22;65881;52.438;16.744;2023-02-28T03:07:13;-4.40;93.70
76936;DHT22;65881;52.438;16.744;2023-02-28T03:09:39;-4.40;93.20
76936;DHT22;65881;52.438;16.744;2023-02-28T03:12:09;-4.50;92.60
76936;DHT22;65881;52.438;16.744;2023-02-28T03:14:55;-4.60;92.70
76936;DHT22;65881;52.438;16.744;2023-02-28T03:25:52;-4.60;93.80
76936;DHT22;65881;52.438;16.744;2023-02-28T03:28:31;-4.60;93.60
76936;DHT22;65881;52.438;16.744;2023-02-28T03:33:39;-4.60;92.70
76936;DHT22;65881;52.438;16.744;2023-02-28T03:36:13;-4.60;92.50
76936;DHT22;65881;52.438;16.744;2023-02-28T03:43:53;-4.70;93.00
76936;DHT22;65881;52.438;16.744;2023-02-28T03:46:23;-4.70;93.10
76936;DHT22;65881;52.438;16.744;2023-02-28T03:48:55;-4.60;93.70
76936;DHT22;65881;52.438;16.744;2023-02-28T03:51:23;-4.60;93.90
76936;DHT22;65881;52.438;16.744;2023-02-28T03:53:59;-4.60;93.50
76936;DHT22;65881;52.438;16.744;2023-02-28T03:56:33;-4.70;92.60
76936;DHT22;65881;52.438;16.744;2023-02-28T04:01:48;-4.80;92.90
76936;DHT22;65881;52.438;16.744;2023-02-28T04:04:15;-4.70;94.00
76936;DHT22;65881;52.438;16.744;2023-02-28T04:06:43;-4.60;94.20
76936;DHT22;65881;52.438;16.744;2023-02-28T04:09:13;-4.60;94.20
76936;DHT22;65881;52.438;16.744;2023-02-28T04:14:07;-4.80;93.20
76936;DHT22;65881;52.438;16.744;2023-02-28T04:16:36;-4.70;93.80
76936;DHT22;65881;52.438;16.744;2023-02-28T04:19:03;-4.70;94.20
76936;DHT22;65881;52.438;16.744;2023-02-28T04:21:42;-4.60;94.20
76936;DHT22;65881;52.438;16.744;2023-02-28T04:24:09;-4.70;94.10
76936;DHT22;65881;52.438;16.744;2023-02-28T04:26:40;-4.70;94.20
76936;DHT22;65881;52.438;16.744;2023-02-28T04:29:06;-4.80;93.90
76936;DHT22;65881;52.438;16.744;2023-02-28T04:31:34;-4.80;94.10
76936;DHT22;65881;52.438;16.744;2023-02-28T04:34:00;-4.80;93.60
76936;DHT22;65881;52.438;16.744;2023-02-28T04:36:26;-4.80;93.80
76936;DHT22;65881;52.438;16.744;2023-02-28T04:38:52;-4.90;93.70
76936;DHT22;65881;52.438;16.744;2023-02-28T04:41:19;-4.80;93.70
76936;DHT22;65881;52.438;16.744;2023-02-28T04:43:45;-4.90;93.40
76936;DHT22;65881;52.438;16.744;2023-02-28T04:46:18;-4.90;93.20
76936;DHT22;65881;52.438;16.744;2023-02-28T04:48:44;-4.90;93.20
76936;DHT22;65881;52.438;16.744;2023-02-28T04:51:12;-4.90;93.60
76936;DHT22;65881;52.438;16.744;2023-02-28T04:53:38;-5.00;93.70
76936;DHT22;65881;52.438;16.744;2023-02-28T04:56:06;-5.00;93.90
76936;DHT22;65881;52.438;16.744;2023-02-28T04:58:32;-5.00;94.00
76936;DHT22;65881;52.438;16.744;2023-02-28T05:03:41;-5.00;93.70
76936;DHT22;65881;52.438;16.744;2023-02-28T05:06:08;-5.00;93.70
76936;DHT22;65881;52.438;16.744;2023-02-28T05:08:33;-5.00;93.90
76936;DHT22;65881;52.438;16.744;2023-02-28T05:10:59;-5.00;93.70
76936;DHT22;65881;52.438;16.744;2023-02-28T05:13:27;-5.00;94.00
76936;DHT22;65881;52.438;16.744;2023-02-28T05:15:53;-4.90;93.60
76936;DHT22;65881;52.438;16.744;2023-02-28T05:18:18;-5.00;93.70
76936;DHT22;65881;52.438;16.744;2023-02-28T05:20:44;-5.00;93.20
76936;DHT22;65881;52.438;16.744;2023-02-28T05:23:12;-5.00;93.40
76936;DHT22;65881;52.438;16.744;2023-02-28T05:25:39;-5.00;93.30
76936;DHT22;65881;52.438;16.744;2023-02-28T05:28:05;-5.00;93.20
76936;DHT22;65881;52.438;16.744;2023-02-28T05:30:31;-5.10;92.90
76936;DHT22;65881;52.438;16.744;2023-02-28T05:32:57;-5.10;93.90
76936;DHT22;65881;52.438;16.744;2023-02-28T05:35:24;-5.10;94.00
76936;DHT22;65881;52.438;16.744;2023-02-28T05:37:50;-5.10;94.00
76936;DHT22;65881;52.438;16.744;2023-02-28T05:40:16;-5.10;94.20
76936;DHT22;65881;52.438;16.744;2023-02-28T05:42:42;-5.10;94.60
76936;DHT22;65881;52.438;16.744;2023-02-28T05:45:09;-5.10;94.70
76936;DHT22;65881;52.438;16.744;2023-02-28T05:47:35;-5.10;94.90
76936;DHT22;65881;52.438;16.744;2023-02-28T05:50:01;-5.10;95.00
76936;DHT22;65881;52.438;16.744;2023-02-28T05:52:28;-5.10;95.60
76936;DHT22;65881;52.438;16.744;2023-02-28T05:54:55;-5.00;95.70
76936;DHT22;65881;52.438;16.744;2023-02-28T05:57:21;-4.90;96.00
76936;DHT22;65881;52.438;16.744;2023-02-28T05:59:47;-4.90;95.60
76936;DHT22;65881;52.438;16.744;2023-02-28T06:02:15;-4.90;95.40
76936;DHT22;65881;52.438;16.744;2023-02-28T06:04:42;-4.90;95.20
76936;DHT22;65881;52.438;16.744;2023-02-28T06:07:09;-4.90;95.30
76936;DHT22;65881;52.438;16.744;2023-02-28T06:09:35;-4.90;94.90
76936;DHT22;65881;52.438;16.744;2023-02-28T06:12:03;-4.90;95.10
76936;DHT22;65881;52.438;16.744;2023-02-28T06:14:31;-4.90;95.20
76936;DHT22;65881;52.438;16.744;2023-02-28T06:16:58;-4.90;95.10
76936;DHT22;65881;52.438;16.744;2023-02-28T06:19:25;-4.90;95.10
76936;DHT22;65881;52.438;16.744;2023-02-28T06:21:52;-4.60;97.10
76936;DHT22;65881;52.438;16.744;2023-02-28T06:24:19;-4.70;95.50
76936;DHT22;65881;52.438;16.744;2023-02-28T06:26:45;-4.70;94.70
76936;DHT22;65881;52.438;16.744;2023-02-28T06:29:12;-4.70;94.30
76936;DHT22;65881;52.438;16.744;2023-02-28T06:31:43;-4.60;94.60
76936;DHT22;65881;52.438;16.744;2023-02-28T06:34:09;-4.60;94.40
76936;DHT22;65881;52.438;16.744;2023-02-28T06:36:37;-4.60;94.40
76936;DHT22;65881;52.438;16.744;2023-02-28T06:39:21;-4.60;94.50
76936;DHT22;65881;52.438;16.744;2023-02-28T06:41:48;-4.60;94.30
76936;DHT22;65881;52.438;16.744;2023-02-28T06:44:18;-4.40;94.50
76936;DHT22;65881;52.438;16.744;2023-02-28T06:46:48;-4.40;94.50
76936;DHT22;65881;52.438;16.744;2023-02-28T06:49:41;-4.30;94.20
76936;DHT22;65881;52.438;16.744;2023-02-28T06:52:07;-4.30;94.00
76936;DHT22;65881;52.438;16.744;2023-02-28T06:54:37;-4.20;94.10
76936;DHT22;65881;52.438;16.744;2023-02-28T06:57:09;-4.10;93.50
76936;DHT22;65881;52.438;16.744;2023-02-28T06:59:38;-4.10;93.30
76936;DHT22;65881;52.438;16.744;2023-02-28T07:02:03;-4.10;93.50
76936;DHT22;65881;52.438;16.744;2023-02-28T07:04:35;-4.00;93.60
76936;DHT22;65881;52.438;16.744;2023-02-28T07:07:02;-4.00;93.30
76936;DHT22;65881;52.438;16.744;2023-02-28T07:09:36;-3.90;93.60
76936;DHT22;65881;52.438;16.744;2023-02-28T07:12:02;-3.80;93.10
76936;DHT22;65881;52.438;16.744;2023-02-28T07:14:29;-3.80;93.20
76936;DHT22;65881;52.438;16.744;2023-02-28T07:16:56;-3.70;92.60
76936;DHT22;65881;52.438;16.744;2023-02-28T07:19:29;-3.60;92.80
76936;DHT22;65881;52.438;16.744;2023-02-28T07:21:55;-3.60;92.80
76936;DHT22;65881;52.438;16.744;2023-02-28T07:24:24;-3.50;92.80
76936;DHT22;65881;52.438;16.744;2023-02-28T07:26:53;-3.40;92.70
76936;DHT22;65881;52.438;16.744;2023-02-28T07:29:19;-3.40;92.40
76936;DHT22;65881;52.438;16.744;2023-02-28T07:31:45;-3.40;92.30
76936;DHT22;65881;52.438;16.744;2023-02-28T07:34:12;-3.30;92.10
76936;DHT22;65881;52.438;16.744;2023-02-28T07:36:38;-3.20;92.50
76936;DHT22;65881;52.438;16.744;2023-02-28T07:39:04;-3.10;92.40
76936;DHT22;65881;52.438;16.744;2023-02-28T07:41:30;-3.00;92.10
76936;DHT22;65881;52.438;16.744;2023-02-28T07:43:59;-3.00;90.50
76936;DHT22;65881;52.438;16.744;2023-02-28T07:46:30;-2.90;90.60
76936;DHT22;65881;52.438;16.744;2023-02-28T07:49:00;-2.90;90.90
76936;DHT22;65881;52.438;16.744;2023-02-28T07:51:30;-2.70;90.40
76936;DHT22;65881;52.438;16.744;2023-02-28T07:53:58;-2.60;90.10
76936;DHT22;65881;52.438;16.744;2023-02-28T07:56:26;-2.50;89.60
76936;DHT22;65881;52.438;16.744;2023-02-28T07:58:52;-2.50;89.90
76936;DHT22;65881;52.438;16.744;2023-02-28T08:01:18;-2.40;89.60
76936;DHT22;65881;52.438;16.744;2023-02-28T08:03:44;-2.30;89.20
76936;DHT22;65881;52.438;16.744;2023-02-28T08:06:17;-2.10;89.30
76936;DHT22;65881;52.438;16.744;2023-02-28T08:08:43;-1.70;87.80
76936;DHT22;65881;52.438;16.744;2023-02-28T08:11:09;-1.60;86.50
76936;DHT22;65881;52.438;16.744;2023-02-28T08:13:36;-1.60;87.00
76936;DHT22;65881;52.438;16.744;2023-02-28T08:16:08;-1.60;87.70
76936;DHT22;65881;52.438;16.744;2023-02-28T08:18:41;-1.40;87.30
76936;DHT22;65881;52.438;16.744;2023-02-28T08:21:10;-1.20;86.60
76936;DHT22;65881;52.438;16.744;2023-02-28T08:23:39;-0.90;85.50
76936;DHT22;65881;52.438;16.744;2023-02-28T08:26:05;-0.70;84.00
76936;DHT22;65881;52.438;16.744;2023-02-28T08:28:32;-0.60;83.70
76936;DHT22;65881;52.438;16.744;2023-02-28T08:30:58;-0.60;84.10
76936;DHT22;65881;52.438;16.744;2023-02-28T08:33:25;-0.50;84.00
76936;DHT22;65881;52.438;16.744;2023-02-28T08:35:55;-0.10;83.90
76936;DHT22;65881;52.438;16.744;2023-02-28T08:38:22;0.20;80.90
76936;DHT22;65881;52.438;16.744;2023-02-28T08:40:47;0.40;79.40
76936;DHT22;65881;52.438;16.744;2023-02-28T08:43:13;0.60;78.50
76936;DHT22;65881;52.438;16.744;2023-02-28T08:45:39;0.80;77.90
76936;DHT22;65881;52.438;16.744;2023-02-28T08:48:05;1.00;77.10
76936;DHT22;65881;52.438;16.744;2023-02-28T08:50:31;1.40;76.00
76936;DHT22;65881;52.438;16.744;2023-02-28T08:52:57;1.10;75.90
76936;DHT22;65881;52.438;16.744;2023-02-28T08:55:23;1.20;75.10
76936;DHT22;65881;52.438;16.744;2023-02-28T08:57:49;1.40;74.80
76936;DHT22;65881;52.438;16.744;2023-02-28T09:00:15;1.40;73.90
76936;DHT22;65881;52.438;16.744;2023-02-28T09:02:41;2.00;72.30
76936;DHT22;65881;52.438;16.744;2023-02-28T09:05:10;2.10;71.00
76936;DHT22;65881;52.438;16.744;2023-02-28T09:07:35;2.50;70.40
76936;DHT22;65881;52.438;16.744;2023-02-28T09:10:16;2.30;70.00
76936;DHT22;65881;52.438;16.744;2023-02-28T09:12:42;2.50;69.10
76936;DHT22;65881;52.438;16.744;2023-02-28T09:15:12;2.40;69.70
76936;DHT22;65881;52.438;16.744;2023-02-28T09:17:38;2.60;68.90
76936;DHT22;65881;52.438;16.744;2023-02-28T09:20:05;3.00;67.70
76936;DHT22;65881;52.438;16.744;2023-02-28T09:22:31;2.80;67.90
76936;DHT22;65881;52.438;16.744;2023-02-28T09:24:56;3.00;67.20
76936;DHT22;65881;52.438;16.744;2023-02-28T09:27:22;3.10;66.60
76936;DHT22;65881;52.438;16.744;2023-02-28T09:29:48;3.10;66.60
76936;DHT22;65881;52.438;16.744;2023-02-28T09:32:13;3.10;67.30
76936;DHT22;65881;52.438;16.744;2023-02-28T09:34:39;3.30;65.90
76936;DHT22;65881;52.438;16.744;2023-02-28T09:37:05;3.50;65.70
76936;DHT22;65881;52.438;16.744;2023-02-28T09:39:31;2.80;65.00
76936;DHT22;65881;52.438;16.744;2023-02-28T09:41:57;2.50;66.50
76936;DHT22;65881;52.438;16.744;2023-02-28T09:44:36;2.60;65.10
76936;DHT22;65881;52.438;16.744;2023-02-28T09:49:46;2.00;67.90
76936;DHT22;65881;52.438;16.744;2023-02-28T09:52:30;1.90;68.60
76936;DHT22;65881;52.438;16.744;2023-02-28T09:55:20;1.70;69.30
76936;DHT22;65881;52.438;16.744;2023-02-28T09:57:48;1.60;70.40
76936;DHT22;65881;52.438;16.744;2023-02-28T10:00:34;1.80;69.80
76936;DHT22;65881;52.438;16.744;2023-02-28T10:05:42;2.50;67.10
76936;DHT22;65881;52.438;16.744;2023-02-28T10:08:24;2.70;66.70
76936;DHT22;65881;52.438;16.744;2023-02-28T10:11:00;3.20;65.20
76936;DHT22;65881;52.438;16.744;2023-02-28T10:16:27;3.50;62.90
76936;DHT22;65881;52.438;16.744;2023-02-28T10:18:59;3.30;62.40
76936;DHT22;65881;52.438;16.744;2023-02-28T10:21:44;3.10;63.20
76936;DHT22;65881;52.438;16.744;2023-02-28T10:24:35;3.50;62.30
76936;DHT22;65881;52.438;16.744;2023-02-28T10:27:20;3.80;60.40
76936;DHT22;65881;52.438;16.744;2023-02-28T10:29:49;3.70;60.70
76936;DHT22;65881;52.438;16.744;2023-02-28T10:32:18;4.00;60.80
76936;DHT22;65881;52.438;16.744;2023-02-28T10:34:45;3.90;61.20
76936;DHT22;65881;52.438;16.744;2023-02-28T10:37:16;3.90;60.20
76936;DHT22;65881;52.438;16.744;2023-02-28T10:39:46;4.20;59.20
76936;DHT22;65881;52.438;16.744;2023-02-28T10:42:27;4.50;58.60
76936;DHT22;65881;52.438;16.744;2023-02-28T10:47:34;4.50;56.50
76936;DHT22;65881;52.438;16.744;2023-02-28T10:50:02;4.60;57.60
76936;DHT22;65881;52.438;16.744;2023-02-28T10:52:41;5.00;55.50
76936;DHT22;65881;52.438;16.744;2023-02-28T10:55:20;5.20;54.40
76936;DHT22;65881;52.438;16.744;2023-02-28T10:57:46;5.10;53.60
76936;DHT22;65881;52.438;16.744;2023-02-28T11:00:24;5.10;53.10
76936;DHT22;65881;52.438;16.744;2023-02-28T11:02:52;5.20;53.80
76936;DHT22;65881;52.438;16.744;2023-02-28T11:05:35;4.70;53.80
76936;DHT22;65881;52.438;16.744;2023-02-28T11:08:12;4.20;56.20
76936;DHT22;65881;52.438;16.744;2023-02-28T11:10:38;4.10;57.00
76936;DHT22;65881;52.438;16.744;2023-02-28T11:13:05;4.50;56.20
76936;DHT22;65881;52.438;16.744;2023-02-28T11:15:33;4.70;55.30
76936;DHT22;65881;52.438;16.744;2023-02-28T11:18:53;4.90;55.60
76936;DHT22;65881;52.438;16.744;2023-02-28T11:21:22;5.10;56.30
76936;DHT22;65881;52.438;16.744;2023-02-28T11:23:49;5.00;54.90
76936;DHT22;65881;52.438;16.744;2023-02-28T11:26:35;4.80;56.60
76936;DHT22;65881;52.438;16.744;2023-02-28T11:29:23;4.70;56.50
76936;DHT22;65881;52.438;16.744;2023-02-28T11:32:05;4.20;55.00
76936;DHT22;65881;52.438;16.744;2023-02-28T11:34:31;4.00;55.90
76936;DHT22;65881;52.438;16.744;2023-02-28T11:36:59;4.20;55.70
76936;DHT22;65881;52.438;16.744;2023-02-28T11:39:26;4.70;54.70
76936;DHT22;65881;52.438;16.744;2023-02-28T12:02:20;5.30;52.70
76936;DHT22;65881;52.438;16.744;2023-02-28T12:10:22;4.70;54.50
76936;DHT22;65881;52.438;16.744;2023-02-28T12:23:46;5.30;52.30
76936;DHT22;65881;52.438;16.744;2023-02-28T12:26:29;4.90;53.50
76936;DHT22;65881;52.438;16.744;2023-02-28T12:31:40;5.00;54.30
76936;DHT22;65881;52.438;16.744;2023-02-28T12:34:14;4.90;54.30
76936;DHT22;65881;52.438;16.744;2023-02-28T12:36:42;4.90;53.10
76936;DHT22;65881;52.438;16.744;2023-02-28T12:39:19;4.90;53.50
76936;DHT22;65881;52.438;16.744;2023-02-28T12:44:51;4.70;55.30
76936;DHT22;65881;52.438;16.744;2023-02-28T12:47:18;4.30;55.00
76936;DHT22;65881;52.438;16.744;2023-02-28T12:50:13;4.00;56.20
76936;DHT22;65881;52.438;16.744;2023-02-28T12:55:15;4.30;56.00
76936;DHT22;65881;52.438;16.744;2023-02-28T12:57:52;4.70;54.90
76936;DHT22;65881;52.438;16.744;2023-02-28T13:00:24;4.80;55.10
76936;DHT22;65881;52.438;16.744;2023-02-28T13:06:28;5.00;53.80
76936;DHT22;65881;52.438;16.744;2023-02-28T13:09:15;4.90;53.10
76936;DHT22;65881;52.438;16.744;2023-02-28T13:14:36;5.00;51.80
76936;DHT22;65881;52.438;16.744;2023-02-28T13:19:37;5.00;54.80
76936;DHT22;65881;52.438;16.744;2023-02-28T13:22:04;5.00;55.00
76936;DHT22;65881;52.438;16.744;2023-02-28T13:34:35;4.50;52.90
76936;DHT22;65881;52.438;16.744;2023-02-28T13:39:53;4.40;55.00
76936;DHT22;65881;52.438;16.744;2023-02-28T13:47:51;4.10;54.60
76936;DHT22;65881;52.438;16.744;2023-02-28T13:50:31;4.00;55.90
76936;DHT22;65881;52.438;16.744;2023-02-28T14:06:54;4.30;55.20
76936;DHT22;65881;52.438;16.744;2023-02-28T14:11:55;4.30;55.50
76936;DHT22;65881;52.438;16.744;2023-02-28T14:17:03;4.40;55.70
76936;DHT22;65881;52.438;16.744;2023-02-28T14:19:32;4.30;55.20
76936;DHT22;65881;52.438;16.744;2023-02-28T14:32:40;4.10;58.60
76936;DHT22;65881;52.438;16.744;2023-02-28T14:37:38;4.20;56.50
76936;DHT22;65881;52.438;16.744;2023-02-28T14:40:11;4.20;56.30
76936;DHT22;65881;52.438;16.744;2023-02-28T14:42:37;4.10;57.90
76936;DHT22;65881;52.438;16.744;2023-02-28T14:45:18;4.10;57.60
76936;DHT22;65881;52.438;16.744;2023-02-28T14:47:44;3.90;58.70
76936;DHT22;65881;52.438;16.744;2023-02-28T14:50:29;4.00;59.00
76936;DHT22;65881;52.438;16.744;2023-02-28T14:52:56;3.90;58.20
76936;DHT22;65881;52.438;16.744;2023-02-28T14:55:31;3.90;60.10
76936;DHT22;65881;52.438;16.744;2023-02-28T14:58:02;3.80;60.30
76936;DHT22;65881;52.438;16.744;2023-02-28T15:00:34;3.70;59.80
76936;DHT22;65881;52.438;16.744;2023-02-28T15:03:20;3.70;59.60
76936;DHT22;65881;52.438;16.744;2023-02-28T15:06:15;3.70;61.00
76936;DHT22;65881;52.438;16.744;2023-02-28T15:08:46;3.50;57.80
76936;DHT22;65881;52.438;16.744;2023-02-28T15:11:16;3.50;59.40
76936;DHT22;65881;52.438;16.744;2023-02-28T15:13:55;3.50;58.70
76936;DHT22;65881;52.438;16.744;2023-02-28T15:16:36;3.50;58.40
76936;DHT22;65881;52.438;16.744;2023-02-28T15:19:28;3.50;58.50
76936;DHT22;65881;52.438;16.744;2023-02-28T15:21:59;3.60;59.50
76936;DHT22;65881;52.438;16.744;2023-02-28T15:24:50;3.50;58.20
76936;DHT22;65881;52.438;16.744;2023-02-28T15:27:46;3.40;58.70
76936;DHT22;65881;52.438;16.744;2023-02-28T15:30:20;3.50;59.20
76936;DHT22;65881;52.438;16.744;2023-02-28T15:35:37;3.30;58.00
76936;DHT22;65881;52.438;16.744;2023-02-28T15:40:44;3.20;59.60
76936;DHT22;65881;52.438;16.744;2023-02-28T15:43:17;3.10;60.40
76936;DHT22;65881;52.438;16.744;2023-02-28T15:45:48;3.10;59.50
76936;DHT22;65881;52.438;16.744;2023-02-28T15:48:24;3.10;60.90
76936;DHT22;65881;52.438;16.744;2023-02-28T15:51:16;3.00;61.00
76936;DHT22;65881;52.438;16.744;2023-02-28T15:53:58;2.90;62.10
76936;DHT22;65881;52.438;16.744;2023-02-28T15:56:33;2.80;62.70
76936;DHT22;65881;52.438;16.744;2023-02-28T15:59:03;2.80;62.60
76936;DHT22;65881;52.438;16.744;2023-02-28T16:01:35;2.80;63.50
76936;DHT22;65881;52.438;16.744;2023-02-28T16:04:17;2.70;63.40
76936;DHT22;65881;52.438;16.744;2023-02-28T16:09:24;2.50;64.00
76936;DHT22;65881;52.438;16.744;2023-02-28T16:11:52;2.40;64.00
76936;DHT22;65881;52.438;16.744;2023-02-28T16:14:39;2.30;66.70
76936;DHT22;65881;52.438;16.744;2023-02-28T16:20:32;2.20;63.60
76936;DHT22;65881;52.438;16.744;2023-02-28T16:23:00;2.10;63.80
76936;DHT22;65881;52.438;16.744;2023-02-28T16:28:22;1.90;64.80
76936;DHT22;65881;52.438;16.744;2023-02-28T16:30:51;1.80;65.00
76936;DHT22;65881;52.438;16.744;2023-02-28T16:33:17;1.70;65.20
76936;DHT22;65881;52.438;16.744;2023-02-28T16:35:44;1.60;65.70
76936;DHT22;65881;52.438;16.744;2023-02-28T16:38:10;1.60;65.60
76936;DHT22;65881;52.438;16.744;2023-02-28T16:40:36;1.50;66.10
76936;DHT22;65881;52.438;16.744;2023-02-28T16:43:05;1.40;66.50
76936;DHT22;65881;52.438;16.744;2023-02-28T16:45:32;1.40;67.40
76936;DHT22;65881;52.438;16.744;2023-02-28T16:47:59;1.40;67.40
76936;DHT22;65881;52.438;16.744;2023-02-28T16:50:27;1.20;67.70
76936;DHT22;65881;52.438;16.744;2023-02-28T16:52:53;1.20;67.70
76936;DHT22;65881;52.438;16.744;2023-02-28T16:55:20;1.10;67.70
76936;DHT22;65881;52.438;16.744;2023-02-28T16:57:57;1.00;68.40
76936;DHT22;65881;52.438;16.744;2023-02-28T17:00:24;1.00;68.70
76936;DHT22;65881;52.438;16.744;2023-02-28T17:02:50;1.00;71.80
76936;DHT22;65881;52.438;16.744;2023-02-28T17:05:16;1.00;68.60
76936;DHT22;65881;52.438;16.744;2023-02-28T17:07:46;0.90;68.60
76936;DHT22;65881;52.438;16.744;2023-02-28T17:10:32;0.80;68.70
76936;DHT22;65881;52.438;16.744;2023-02-28T17:12:58;0.70;69.10
76936;DHT22;65881;52.438;16.744;2023-02-28T17:15:24;0.60;69.60
76936;DHT22;65881;52.438;16.744;2023-02-28T17:17:50;0.50;69.90
76936;DHT22;65881;52.438;16.744;2023-02-28T17:20:21;0.40;69.90
76936;DHT22;65881;52.438;16.744;2023-02-28T17:22:52;0.40;70.00
76936;DHT22;65881;52.438;16.744;2023-02-28T17:25:18;0.30;70.80
76936;DHT22;65881;52.438;16.744;2023-02-28T17:27:44;0.10;72.30
76936;DHT22;65881;52.438;16.744;2023-02-28T17:30:19;0.00;71.80
76936;DHT22;65881;52.438;16.744;2023-02-28T17:32:45;-0.10;71.00
76936;DHT22;65881;52.438;16.744;2023-02-28T17:35:11;-0.20;71.60
76936;DHT22;65881;52.438;16.744;2023-02-28T17:37:37;-0.30;72.20
76936;DHT22;65881;52.438;16.744;2023-02-28T17:40:03;-0.40;72.90
76936;DHT22;65881;52.438;16.744;2023-02-28T17:42:29;-0.40;72.90
76936;DHT22;65881;52.438;16.744;2023-02-28T17:44:54;-0.50;73.70
76936;DHT22;65881;52.438;16.744;2023-02-28T17:47:20;-0.60;73.80
76936;DHT22;65881;52.438;16.744;2023-02-28T17:49:46;-0.60;74.30
76936;DHT22;65881;52.438;16.744;2023-02-28T17:52:12;-0.60;74.30
76936;DHT22;65881;52.438;16.744;2023-02-28T17:54:37;-0.60;74.50
76936;DHT22;65881;52.438;16.744;2023-02-28T17:57:03;-0.70;74.30
76936;DHT22;65881;52.438;16.744;2023-02-28T17:59:29;-0.70;74.20
76936;DHT22;65881;52.438;16.744;2023-02-28T18:02:02;-0.70;73.70
76936;DHT22;65881;52.438;16.744;2023-02-28T18:04:41;-0.70;73.60
76936;DHT22;65881;52.438;16.744;2023-02-28T18:07:10;-0.70;73.00
76936;DHT22;65881;52.438;16.744;2023-02-28T18:09:36;-0.70;73.30
76936;DHT22;65881;52.438;16.744;2023-02-28T18:12:02;-0.70;74.50
76936;DHT22;65881;52.438;16.744;2023-02-28T18:14:29;-0.70;74.60
76936;DHT22;65881;52.438;16.744;2023-02-28T18:16:55;-0.70;74.80
76936;DHT22;65881;52.438;16.744;2023-02-28T18:19:22;-0.80;75.00
76936;DHT22;65881;52.438;16.744;2023-02-28T18:21:51;-0.80;74.40
76936;DHT22;65881;52.438;16.744;2023-02-28T18:24:18;-0.80;73.90
76936;DHT22;65881;52.438;16.744;2023-02-28T18:26:45;-0.80;74.00
76936;DHT22;65881;52.438;16.744;2023-02-28T18:29:25;-0.90;73.90
76936;DHT22;65881;52.438;16.744;2023-02-28T18:31:52;-0.90;74.10
76936;DHT22;65881;52.438;16.744;2023-02-28T18:34:18;-0.90;75.00